createdAt,value
2017-10-30T00:00:15.466Z,6.44
2017-10-30T00:01:15.457Z,6.42
2017-10-30T00:02:15.441Z,6.46
2017-10-30T00:03:15.430Z,6.46
2017-10-30T00:04:15.422Z,6.39
2017-10-30T00:05:15.403Z,6.44
2017-10-30T00:06:15.398Z,6.42
2017-10-30T00:07:15.384Z,6.49
2017-10-30T00:08:15.370Z,6.42
2017-10-30T00:09:15.363Z,6.42
2017-10-30T00:10:15.346Z,6.45
2017-10-30T00:11:15.333Z,6.38
2017-10-30T00:12:15.326Z,6.41
2017-10-30T00:13:15.311Z,6.38
2017-10-30T00:14:15.297Z,6.39
2017-10-30T00:15:15.293Z,6.38
2017-10-30T00:16:15.273Z,6.39
2017-10-30T00:17:15.266Z,6.41
2017-10-30T00:18:15.249Z,6.41
2017-10-30T00:19:15.240Z,6.36
2017-10-30T00:20:15.229Z,6.41
2017-10-30T00:21:15.214Z,6.38
2017-10-30T00:22:15.206Z,6.36
2017-10-30T00:23:15.207Z,6.36
2017-10-30T00:24:15.181Z,6.38
2017-10-30T00:25:15.165Z,6.48
2017-10-30T00:26:15.165Z,6.41
2017-10-30T00:27:15.143Z,6.35
2017-10-30T00:28:15.132Z,6.33
2017-10-30T00:29:15.121Z,6.35
2017-10-30T00:30:15.112Z,6.30
2017-10-30T00:31:15.104Z,6.28
2017-10-30T00:32:15.088Z,6.36
2017-10-30T00:33:15.073Z,6.38
2017-10-30T00:34:15.071Z,6.27
2017-10-30T00:35:15.124Z,6.28
2017-10-30T00:36:15.038Z,6.38
2017-10-30T00:37:15.027Z,6.38
2017-10-30T00:38:15.015Z,6.36
2017-10-30T00:39:15.002Z,6.33
2017-10-30T00:40:14.990Z,6.26
2017-10-30T00:41:14.979Z,6.30
2017-10-30T00:42:14.970Z,6.39
2017-10-30T00:43:14.956Z,6.31
2017-10-30T00:44:14.947Z,6.31
2017-10-30T00:45:14.936Z,6.35
2017-10-30T00:46:14.919Z,6.35
2017-10-30T00:47:14.909Z,6.30
2017-10-30T00:48:14.901Z,6.39
2017-10-30T00:49:14.882Z,6.39
2017-10-30T00:50:14.872Z,6.27
2017-10-30T00:51:14.862Z,6.39
2017-10-30T00:52:14.853Z,6.33
2017-10-30T00:53:14.834Z,6.39
2017-10-30T00:54:14.823Z,6.30
2017-10-30T00:55:14.816Z,6.39
2017-10-30T00:56:14.801Z,6.33
2017-10-30T00:57:14.788Z,6.33
2017-10-30T00:58:14.779Z,6.28
2017-10-30T00:59:14.767Z,6.35
2017-10-30T01:00:14.752Z,6.36
2017-10-30T01:01:14.743Z,6.28
2017-10-30T01:02:14.749Z,6.38
2017-10-30T01:03:14.720Z,6.36
2017-10-30T01:04:14.705Z,6.38
2017-10-30T01:05:14.699Z,6.36
2017-10-30T01:06:14.683Z,6.38
2017-10-30T01:07:14.675Z,6.42
2017-10-30T01:08:14.656Z,6.39
2017-10-30T01:09:14.646Z,6.44
2017-10-30T01:10:14.633Z,6.45
2017-10-30T01:11:14.627Z,6.45
2017-10-30T01:12:14.621Z,6.44
2017-10-30T01:13:14.602Z,6.42
2017-10-30T01:14:14.587Z,6.51
2017-10-30T01:15:14.576Z,6.46
2017-10-30T01:16:14.570Z,6.42
2017-10-30T01:17:14.550Z,6.45
2017-10-30T01:18:14.540Z,6.51
2017-10-30T01:19:14.530Z,6.44
2017-10-30T01:20:14.520Z,6.46
2017-10-30T01:21:14.505Z,6.45
2017-10-30T01:22:14.491Z,6.44
2017-10-30T01:23:14.485Z,6.46
2017-10-30T01:24:14.468Z,6.44
2017-10-30T01:25:14.456Z,6.42
2017-10-30T01:26:14.443Z,6.51
2017-10-30T01:27:14.446Z,6.42
2017-10-30T01:28:14.423Z,6.51
2017-10-30T01:29:14.413Z,6.54
2017-10-30T01:30:14.397Z,6.48
2017-10-30T01:31:14.394Z,6.46
2017-10-30T01:32:14.373Z,6.42
2017-10-30T01:33:14.361Z,6.42
2017-10-30T01:34:14.354Z,6.45
2017-10-30T01:35:14.344Z,6.41
2017-10-30T01:36:14.329Z,6.44
2017-10-30T01:37:14.316Z,6.44
2017-10-30T01:38:14.304Z,6.41
2017-10-30T01:39:14.291Z,6.44
2017-10-30T01:40:14.279Z,6.42
2017-10-30T01:41:14.267Z,6.41
2017-10-30T01:42:14.256Z,6.35
2017-10-30T01:43:14.243Z,6.35
2017-10-30T01:44:14.239Z,6.31
2017-10-30T01:45:14.220Z,6.33
2017-10-30T01:46:14.209Z,6.22
2017-10-30T01:47:14.201Z,6.28
2017-10-30T01:48:14.184Z,6.27
2017-10-30T01:49:14.176Z,6.26
2017-10-30T01:50:14.165Z,6.31
2017-10-30T01:51:14.150Z,6.26
2017-10-30T01:52:14.137Z,6.28
2017-10-30T01:53:14.128Z,6.27
2017-10-30T01:54:14.114Z,6.27
2017-10-30T01:55:14.106Z,6.24
2017-10-30T01:56:14.093Z,6.31
2017-10-30T01:57:14.077Z,6.17
2017-10-30T01:58:14.066Z,6.22
2017-10-30T01:59:14.061Z,6.12
2017-10-30T02:00:14.042Z,6.14
2017-10-30T02:01:14.031Z,6.19
2017-10-30T02:02:14.019Z,6.20
2017-10-30T02:03:14.007Z,6.17
2017-10-30T02:04:13.999Z,6.08
2017-10-30T02:05:13.982Z,6.05
2017-10-30T02:06:13.971Z,6.08
2017-10-30T02:07:13.958Z,6.12
2017-10-30T02:08:13.949Z,6.12
2017-10-30T02:09:13.937Z,6.09
2017-10-30T02:10:13.925Z,6.08
2017-10-30T02:11:13.917Z,6.05
2017-10-30T02:12:13.900Z,6.04
2017-10-30T02:13:13.887Z,6.07
2017-10-30T02:14:13.875Z,6.12
2017-10-30T02:15:13.866Z,6.05
2017-10-30T02:16:13.851Z,6.11
2017-10-30T02:17:13.841Z,6.02
2017-10-30T02:18:13.827Z,6.05
2017-10-30T02:19:13.820Z,6.05
2017-10-30T02:20:13.807Z,6.02
2017-10-30T02:21:13.797Z,6.02
2017-10-30T02:22:13.780Z,6.08
2017-10-30T02:23:13.769Z,6.02
2017-10-30T02:24:13.762Z,6.02
2017-10-30T02:25:13.747Z,6.04
2017-10-30T02:26:13.738Z,6.05
2017-10-30T02:27:13.720Z,6.07
2017-10-30T02:28:13.714Z,6.14
2017-10-30T02:29:13.698Z,6.16
2017-10-30T02:30:13.688Z,6.16
2017-10-30T02:31:13.673Z,6.08
2017-10-30T02:32:13.661Z,6.08
2017-10-30T02:33:13.650Z,5.99
2017-10-30T02:34:13.643Z,6.17
2017-10-30T02:35:13.626Z,6.11
2017-10-30T02:36:13.615Z,6.12
2017-10-30T02:37:13.605Z,6.14
2017-10-30T02:38:13.590Z,6.05
2017-10-30T02:39:13.582Z,6.19
2017-10-30T02:40:13.565Z,6.12
2017-10-30T02:41:13.557Z,6.19
2017-10-30T02:42:13.543Z,6.08
2017-10-30T02:43:13.534Z,6.14
2017-10-30T02:44:13.518Z,6.12
2017-10-30T02:45:13.511Z,6.07
2017-10-30T02:46:13.533Z,6.08
2017-10-30T02:47:13.485Z,6.08
2017-10-30T02:48:13.477Z,6.04
2017-10-30T02:49:13.459Z,6.05
2017-10-30T02:50:13.448Z,6.14
2017-10-30T02:51:13.455Z,6.14
2017-10-30T02:52:13.422Z,6.08
2017-10-30T02:53:13.412Z,6.08
2017-10-30T02:54:13.401Z,6.01
2017-10-30T02:55:13.390Z,6.04
2017-10-30T02:56:13.375Z,6.02
2017-10-30T02:57:13.362Z,5.99
2017-10-30T02:58:13.357Z,5.99
2017-10-30T02:59:13.345Z,5.94
2017-10-30T03:00:13.327Z,5.99
2017-10-30T03:01:13.319Z,5.99
2017-10-30T03:02:13.304Z,5.93
2017-10-30T03:03:13.295Z,5.91
2017-10-30T03:04:13.279Z,5.83
2017-10-30T03:05:13.281Z,5.86
2017-10-30T03:06:13.257Z,5.83
2017-10-30T03:07:13.259Z,5.87
2017-10-30T03:08:13.232Z,5.84
2017-10-30T03:09:13.223Z,5.76
2017-10-30T03:10:13.208Z,5.80
2017-10-30T03:11:13.199Z,5.83
2017-10-30T03:12:13.186Z,5.76
2017-10-30T03:13:13.174Z,5.75
2017-10-30T03:14:13.162Z,5.79
2017-10-30T03:15:13.149Z,5.69
2017-10-30T03:16:13.135Z,5.69
2017-10-30T03:17:13.125Z,5.66
2017-10-30T03:18:13.118Z,5.71
2017-10-30T03:19:13.103Z,5.69
2017-10-30T03:20:13.087Z,5.71
2017-10-30T03:21:13.076Z,5.65
2017-10-30T03:22:13.063Z,5.62
2017-10-30T03:23:13.065Z,5.68
2017-10-30T03:24:13.040Z,5.66
2017-10-30T03:25:13.030Z,5.61
2017-10-30T03:26:13.018Z,5.65
2017-10-30T03:27:13.006Z,5.62
2017-10-30T03:28:12.991Z,5.65
2017-10-30T03:29:12.982Z,5.68
2017-10-30T03:30:12.968Z,5.73
2017-10-30T03:31:12.958Z,5.66
2017-10-30T03:32:12.943Z,5.72
2017-10-30T03:33:12.937Z,5.71
2017-10-30T03:34:12.924Z,5.71
2017-10-30T03:35:12.910Z,5.73
2017-10-30T03:36:33.903Z,5.72
2017-10-30T03:37:12.887Z,5.72
2017-10-30T03:38:12.879Z,5.80
2017-10-30T03:39:12.861Z,5.80
2017-10-30T03:40:12.850Z,5.83
2017-10-30T03:41:12.838Z,5.73
2017-10-30T03:42:12.823Z,5.76
2017-10-30T03:43:12.812Z,5.84
2017-10-30T03:44:12.804Z,5.79
2017-10-30T03:45:12.792Z,5.80
2017-10-30T03:46:12.776Z,5.86
2017-10-30T03:47:12.765Z,5.82
2017-10-30T03:48:12.751Z,5.80
2017-10-30T03:49:12.739Z,5.90
2017-10-30T03:50:12.728Z,5.89
2017-10-30T03:51:12.718Z,5.91
2017-10-30T03:52:12.704Z,5.93
2017-10-30T03:53:12.694Z,5.90
2017-10-30T03:54:12.683Z,5.91
2017-10-30T03:55:12.681Z,5.93
2017-10-30T03:56:12.662Z,5.97
2017-10-30T03:57:12.646Z,5.91
2017-10-30T03:58:12.633Z,5.93
2017-10-30T03:59:12.621Z,5.87
2017-10-30T04:00:12.609Z,5.99
2017-10-30T04:01:12.597Z,5.97
2017-10-30T04:02:12.585Z,6.08
2017-10-30T04:03:12.571Z,6.07
2017-10-30T04:04:12.561Z,6.09
2017-10-30T04:05:12.548Z,6.02
2017-10-30T04:06:12.539Z,6.11
2017-10-30T04:07:12.531Z,6.05
2017-10-30T04:08:12.512Z,6.01
2017-10-30T04:09:12.503Z,6.08
2017-10-30T04:10:12.489Z,6.14
2017-10-30T04:11:12.479Z,6.08
2017-10-30T04:12:12.469Z,6.05
2017-10-30T04:13:12.453Z,6.02
2017-10-30T04:14:12.443Z,6.04
2017-10-30T04:15:12.429Z,6.08
2017-10-30T04:16:12.420Z,6.04
2017-10-30T04:17:12.406Z,6.07
2017-10-30T04:18:12.399Z,6.08
2017-10-30T04:19:12.383Z,6.11
2017-10-30T04:20:12.370Z,6.07
2017-10-30T04:21:12.361Z,6.11
2017-10-30T04:22:12.347Z,6.02
2017-10-30T04:23:12.333Z,5.98
2017-10-30T04:24:12.321Z,5.97
2017-10-30T04:25:12.312Z,5.99
2017-10-30T04:26:12.298Z,5.94
2017-10-30T04:27:12.289Z,5.94
2017-10-30T04:28:12.277Z,5.91
2017-10-30T04:29:12.263Z,5.87
2017-10-30T04:30:12.251Z,5.89
2017-10-30T04:31:12.238Z,5.91
2017-10-30T04:32:12.227Z,5.89
2017-10-30T04:33:12.220Z,5.90
2017-10-30T04:34:12.202Z,5.91
2017-10-30T04:35:12.190Z,5.89
2017-10-30T04:36:12.179Z,5.84
2017-10-30T04:37:12.172Z,5.91
2017-10-30T04:38:12.154Z,5.89
2017-10-30T04:39:12.143Z,5.87
2017-10-30T04:40:12.140Z,5.87
2017-10-30T04:41:12.139Z,5.91
2017-10-30T04:42:12.108Z,5.87
2017-10-30T04:43:12.099Z,5.90
2017-10-30T04:44:12.090Z,5.91
2017-10-30T04:45:12.070Z,5.90
2017-10-30T04:46:12.059Z,5.91
2017-10-30T04:47:12.049Z,5.94
2017-10-30T04:48:12.054Z,5.93
2017-10-30T04:49:12.028Z,5.86
2017-10-30T04:50:12.014Z,5.90
2017-10-30T04:51:12.001Z,5.91
2017-10-30T04:52:11.988Z,5.90
2017-10-30T04:53:11.976Z,5.97
2017-10-30T04:54:11.965Z,5.97
2017-10-30T04:55:11.951Z,5.98
2017-10-30T04:56:11.940Z,5.93
2017-10-30T04:57:11.928Z,5.94
2017-10-30T04:58:11.916Z,6.02
2017-10-30T04:59:11.910Z,5.94
2017-10-30T05:00:11.893Z,5.94
2017-10-30T05:01:11.886Z,5.94
2017-10-30T05:02:11.875Z,5.91
2017-10-30T05:03:11.858Z,5.90
2017-10-30T05:04:11.843Z,5.93
2017-10-30T05:05:11.838Z,5.89
2017-10-30T05:06:11.823Z,5.90
2017-10-30T05:07:11.813Z,5.86
2017-10-30T05:08:11.800Z,5.86
2017-10-30T05:09:11.787Z,5.79
2017-10-30T05:10:11.776Z,5.84
2017-10-30T05:11:11.763Z,5.89
2017-10-30T05:12:11.750Z,5.86
2017-10-30T05:13:11.740Z,5.76
2017-10-30T05:14:11.727Z,5.75
2017-10-30T05:15:11.727Z,5.72
2017-10-30T05:16:11.702Z,5.80
2017-10-30T05:17:11.693Z,5.80
2017-10-30T05:18:11.681Z,5.71
2017-10-30T05:19:11.666Z,5.69
2017-10-30T05:20:11.656Z,5.82
2017-10-30T05:21:11.643Z,5.76
2017-10-30T05:22:11.634Z,5.79
2017-10-30T05:23:11.618Z,5.71
2017-10-30T05:24:11.607Z,5.79
2017-10-30T05:25:11.596Z,5.75
2017-10-30T05:26:11.581Z,5.72
2017-10-30T05:27:11.573Z,5.79
2017-10-30T05:28:11.568Z,5.80
2017-10-30T05:29:11.546Z,5.80
2017-10-30T05:30:11.535Z,5.79
2017-10-30T05:31:11.524Z,5.82
2017-10-30T05:32:11.510Z,5.79
2017-10-30T05:33:11.500Z,5.84
2017-10-30T05:34:11.517Z,5.75
2017-10-30T05:35:11.476Z,5.80
2017-10-30T05:36:11.463Z,5.91
2017-10-30T05:37:11.452Z,5.83
2017-10-30T05:38:11.440Z,5.89
2017-10-30T05:39:11.430Z,5.83
2017-10-30T05:40:11.414Z,5.90
2017-10-30T05:41:11.410Z,5.94
2017-10-30T05:42:11.392Z,5.87
2017-10-30T05:43:11.382Z,5.87
2017-10-30T05:44:11.366Z,5.97
2017-10-30T05:45:11.354Z,5.89
2017-10-30T05:46:11.347Z,5.94
2017-10-30T05:47:11.331Z,5.90
2017-10-30T05:48:11.320Z,5.97
2017-10-30T05:49:11.307Z,5.94
2017-10-30T05:50:11.297Z,5.90
2017-10-30T05:51:11.282Z,5.91
2017-10-30T05:52:11.289Z,5.91
2017-10-30T05:53:11.260Z,5.97
2017-10-30T05:54:11.249Z,5.94
2017-10-30T05:55:11.237Z,5.97
2017-10-30T05:56:11.223Z,5.90
2017-10-30T05:57:11.215Z,5.91
2017-10-30T05:58:11.200Z,5.90
2017-10-30T05:59:11.192Z,5.97
2017-10-30T06:00:11.177Z,5.98
2017-10-30T06:01:11.169Z,5.93
2017-10-30T06:02:11.153Z,5.91
2017-10-30T06:03:11.153Z,5.93
2017-10-30T06:04:11.127Z,6.02
2017-10-30T06:05:11.117Z,5.99
2017-10-30T06:06:11.105Z,5.90
2017-10-30T06:07:11.110Z,5.91
2017-10-30T06:08:11.084Z,5.98
2017-10-30T06:09:11.072Z,5.94
2017-10-30T06:10:11.058Z,5.90
2017-10-30T06:11:11.050Z,5.94
2017-10-30T06:12:11.034Z,5.93
2017-10-30T06:13:11.021Z,5.91
2017-10-30T06:14:11.010Z,5.82
2017-10-30T06:15:11.000Z,5.86
2017-10-30T06:16:10.987Z,5.84
2017-10-30T06:17:10.973Z,5.89
2017-10-30T06:18:10.961Z,5.80
2017-10-30T06:19:10.950Z,5.87
2017-10-30T06:20:10.939Z,5.76
2017-10-30T06:21:10.930Z,5.82
2017-10-30T06:22:10.919Z,5.75
2017-10-30T06:23:10.905Z,5.79
2017-10-30T06:24:10.894Z,5.90
2017-10-30T06:25:10.884Z,5.87
2017-10-30T06:26:10.878Z,5.90
2017-10-30T06:27:10.854Z,5.87
2017-10-30T06:28:10.842Z,6.01
2017-10-30T06:29:10.831Z,5.99
2017-10-30T06:30:10.820Z,6.08
2017-10-30T06:31:10.808Z,5.93
2017-10-30T06:32:10.797Z,6.02
2017-10-30T06:33:10.783Z,6.04
2017-10-30T06:34:10.779Z,6.08
2017-10-30T06:35:10.760Z,6.04
2017-10-30T06:36:10.749Z,6.04
2017-10-30T06:37:10.737Z,6.08
2017-10-30T06:38:10.724Z,6.08
2017-10-30T06:39:10.713Z,6.09
2017-10-30T06:40:10.711Z,6.05
2017-10-30T06:41:10.688Z,6.09
2017-10-30T06:42:10.677Z,6.19
2017-10-30T06:43:10.664Z,6.09
2017-10-30T06:44:10.652Z,6.19
2017-10-30T06:45:10.640Z,6.19
2017-10-30T06:46:10.634Z,6.17
2017-10-30T06:47:10.619Z,6.20
2017-10-30T06:48:10.605Z,6.11
2017-10-30T06:49:10.595Z,6.14
2017-10-30T06:50:10.584Z,6.22
2017-10-30T06:51:10.571Z,6.16
2017-10-30T06:52:10.562Z,6.17
2017-10-30T06:53:10.544Z,6.16
2017-10-30T06:54:10.533Z,6.24
2017-10-30T06:55:10.524Z,6.16
2017-10-30T06:56:10.510Z,6.26
2017-10-30T06:57:10.498Z,6.30
2017-10-30T06:58:10.488Z,6.20
2017-10-30T06:59:10.491Z,6.22
2017-10-30T07:00:10.463Z,6.28
2017-10-30T07:01:10.454Z,6.24
2017-10-30T07:02:10.443Z,6.30
2017-10-30T07:03:10.431Z,6.26
2017-10-30T07:04:10.430Z,6.30
2017-10-30T07:05:10.405Z,6.38
2017-10-30T07:06:10.397Z,6.36
2017-10-30T07:07:10.385Z,6.41
2017-10-30T07:08:10.373Z,6.41
2017-10-30T07:09:10.360Z,6.45
2017-10-30T07:10:10.346Z,6.44
2017-10-30T07:11:10.336Z,6.46
2017-10-30T07:12:10.323Z,6.49
2017-10-30T07:13:10.312Z,6.45
2017-10-30T07:14:10.298Z,6.49
2017-10-30T07:15:10.298Z,6.51
2017-10-30T07:16:10.278Z,6.52
2017-10-30T07:17:10.273Z,6.59
2017-10-30T07:18:10.253Z,6.59
2017-10-30T07:19:10.272Z,6.49
2017-10-30T07:20:10.229Z,6.49
2017-10-30T07:21:10.218Z,6.52
2017-10-30T07:22:10.209Z,6.52
2017-10-30T07:23:10.197Z,6.51
2017-10-30T07:24:10.185Z,6.56
2017-10-30T07:25:10.172Z,6.62
2017-10-30T07:26:10.160Z,6.60
2017-10-30T07:27:10.147Z,6.63
2017-10-30T07:28:10.136Z,6.67
2017-10-30T07:29:10.125Z,6.72
2017-10-30T07:30:10.115Z,6.62
2017-10-30T07:31:10.104Z,6.67
2017-10-30T07:32:10.090Z,6.72
2017-10-30T07:33:10.079Z,6.79
2017-10-30T07:34:10.068Z,6.69
2017-10-30T07:35:10.058Z,6.72
2017-10-30T07:36:10.043Z,6.77
2017-10-30T07:37:10.035Z,6.77
2017-10-30T07:38:10.023Z,6.84
2017-10-30T07:39:10.012Z,6.78
2017-10-30T07:40:09.999Z,6.82
2017-10-30T07:41:09.988Z,6.77
2017-10-30T07:42:09.979Z,6.84
2017-10-30T07:43:09.967Z,6.96
2017-10-30T07:44:09.953Z,6.89
2017-10-30T07:45:09.944Z,6.92
2017-10-30T07:46:09.932Z,6.96
2017-10-30T07:47:09.920Z,6.96
2017-10-30T07:48:09.912Z,6.97
2017-10-30T07:49:09.905Z,6.95
2017-10-30T07:50:09.887Z,6.93
2017-10-30T07:51:09.875Z,7.00
2017-10-30T07:52:09.863Z,7.06
2017-10-30T07:53:09.855Z,7.05
2017-10-30T07:54:09.852Z,7.07
2017-10-30T07:55:09.830Z,7.07
2017-10-30T07:56:09.820Z,7.18
2017-10-30T07:57:09.810Z,7.15
2017-10-30T07:58:09.797Z,7.18
2017-10-30T07:59:09.786Z,7.20
2017-10-30T08:00:09.776Z,7.18
2017-10-30T08:01:09.762Z,7.18
2017-10-30T08:02:09.752Z,7.20
2017-10-30T08:03:09.740Z,7.20
2017-10-30T08:04:09.737Z,7.20
2017-10-30T08:05:09.720Z,7.21
2017-10-30T08:06:09.717Z,7.18
2017-10-30T08:07:09.699Z,7.33
2017-10-30T08:08:09.687Z,7.29
2017-10-30T08:09:09.676Z,7.33
2017-10-30T08:10:09.666Z,7.43
2017-10-30T08:11:09.653Z,7.51
2017-10-30T08:12:09.644Z,7.50
2017-10-30T08:13:09.631Z,7.56
2017-10-30T08:14:09.622Z,7.58
2017-10-30T08:15:09.609Z,7.73
2017-10-30T08:16:09.606Z,7.70
2017-10-30T08:17:09.596Z,7.73
2017-10-30T08:18:09.588Z,7.79
2017-10-30T08:19:09.567Z,7.80
2017-10-30T08:20:09.556Z,8.00
2017-10-30T08:21:09.546Z,7.82
2017-10-30T08:22:09.538Z,7.91
2017-10-30T08:23:09.526Z,8.01
2017-10-30T08:24:09.515Z,8.03
2017-10-30T08:25:09.508Z,8.05
2017-10-30T08:26:09.495Z,8.10
2017-10-30T08:27:09.487Z,8.06
2017-10-30T08:28:09.478Z,8.18
2017-10-30T08:29:09.464Z,8.10
2017-10-30T08:30:09.452Z,8.08
2017-10-30T08:31:09.444Z,8.10
2017-10-30T08:32:09.431Z,8.08
2017-10-30T08:33:09.421Z,8.10
2017-10-30T08:34:09.412Z,8.13
2017-10-30T08:35:09.401Z,8.16
2017-10-30T08:36:09.391Z,8.15
2017-10-30T08:37:09.382Z,8.18
2017-10-30T08:38:09.369Z,8.13
2017-10-30T08:39:09.358Z,8.23
2017-10-30T08:40:09.350Z,8.12
2017-10-30T08:41:09.340Z,8.16
2017-10-30T08:42:09.329Z,8.27
2017-10-30T08:43:09.319Z,8.12
2017-10-30T08:44:09.307Z,8.16
2017-10-30T08:45:09.300Z,8.10
2017-10-30T08:46:09.294Z,8.26
2017-10-30T08:47:09.277Z,8.23
2017-10-30T08:48:09.266Z,8.23
2017-10-30T08:49:09.255Z,8.20
2017-10-30T08:50:09.245Z,8.24
2017-10-30T08:51:09.236Z,8.27
2017-10-30T08:52:09.229Z,8.16
2017-10-30T08:53:09.219Z,8.23
2017-10-30T08:54:09.209Z,8.23
2017-10-30T08:55:09.196Z,8.20
2017-10-30T08:56:09.183Z,8.20
2017-10-30T08:57:09.173Z,8.19
2017-10-30T08:58:09.163Z,8.19
2017-10-30T08:59:09.153Z,8.19
2017-10-30T09:00:09.145Z,8.15
2017-10-30T09:01:09.133Z,8.13
2017-10-30T09:02:09.123Z,8.13
2017-10-30T09:03:09.113Z,8.24
2017-10-30T09:04:09.103Z,8.30
2017-10-30T09:05:09.092Z,8.45
2017-10-30T09:06:09.081Z,8.78
2017-10-30T09:07:09.074Z,9.08
2017-10-30T09:08:09.061Z,9.28
2017-10-30T09:09:09.055Z,9.50
2017-10-30T09:10:09.043Z,9.64
2017-10-30T09:11:09.035Z,9.73
2017-10-30T09:12:09.025Z,9.87
2017-10-30T09:13:09.015Z,9.91
2017-10-30T09:14:09.009Z,10.02
2017-10-30T09:15:08.999Z,10.30
2017-10-30T09:16:08.990Z,10.38
2017-10-30T09:17:08.983Z,10.46
2017-10-30T09:18:08.976Z,10.63
2017-10-30T09:19:08.968Z,10.67
2017-10-30T09:20:08.966Z,10.86
2017-10-30T09:21:08.953Z,10.72
2017-10-30T09:22:08.945Z,10.76
2017-10-30T09:23:08.939Z,10.59
2017-10-30T09:24:08.938Z,10.54
2017-10-30T09:25:08.922Z,10.48
2017-10-30T09:26:08.915Z,10.37
2017-10-30T09:27:08.916Z,10.38
2017-10-30T09:28:08.901Z,10.26
2017-10-30T09:29:08.902Z,10.19
2017-10-30T09:30:08.916Z,10.17
2017-10-30T09:31:08.878Z,10.05
2017-10-30T09:32:08.873Z,9.95
2017-10-30T09:33:08.860Z,10.02
2017-10-30T09:34:08.862Z,9.91
2017-10-30T09:35:08.845Z,10.02
2017-10-30T09:36:08.842Z,9.89
2017-10-30T09:37:08.829Z,9.92
2017-10-30T09:38:08.822Z,9.83
2017-10-30T09:39:08.813Z,9.76
2017-10-30T09:40:08.814Z,9.65
2017-10-30T09:41:08.800Z,9.73
2017-10-30T09:42:08.790Z,9.68
2017-10-30T09:43:08.785Z,9.72
2017-10-30T09:44:08.771Z,9.69
2017-10-30T09:45:08.764Z,9.80
2017-10-30T09:46:08.755Z,9.92
2017-10-30T09:47:08.745Z,10.10
2017-10-30T09:48:08.741Z,10.30
2017-10-30T09:49:08.730Z,10.41
2017-10-30T09:50:08.734Z,10.69
2017-10-30T09:51:08.714Z,10.79
2017-10-30T09:52:08.706Z,10.97
2017-10-30T09:53:08.700Z,10.96
2017-10-30T09:54:08.692Z,11.08
2017-10-30T09:55:08.689Z,11.07
2017-10-30T09:56:08.676Z,10.99
2017-10-30T09:57:08.671Z,11.12
2017-10-30T09:58:08.666Z,11.12
2017-10-30T09:59:08.657Z,11.35
2017-10-30T10:00:08.652Z,11.25
2017-10-30T10:01:08.641Z,11.44
2017-10-30T10:02:08.638Z,11.60
2017-10-30T10:03:08.641Z,11.68
2017-10-30T10:04:08.623Z,11.62
2017-10-30T10:05:08.618Z,11.66
2017-10-30T10:06:08.612Z,11.72
2017-10-30T10:07:08.606Z,11.72
2017-10-30T10:08:08.599Z,11.77
2017-10-30T10:09:08.592Z,11.72
2017-10-30T10:10:08.602Z,11.73
2017-10-30T10:11:08.610Z,11.83
2017-10-30T10:12:08.572Z,11.86
2017-10-30T10:13:08.582Z,11.90
2017-10-30T10:14:08.561Z,11.99
2017-10-30T10:15:08.555Z,11.99
2017-10-30T10:16:08.551Z,12.03
2017-10-30T10:17:08.543Z,11.91
2017-10-30T10:18:08.544Z,11.86
2017-10-30T10:19:08.531Z,11.81
2017-10-30T10:20:08.525Z,11.83
2017-10-30T10:21:08.519Z,11.87
2017-10-30T10:22:08.514Z,11.87
2017-10-30T10:23:08.520Z,11.86
2017-10-30T10:24:08.502Z,11.84
2017-10-30T10:25:08.503Z,11.87
2017-10-30T10:26:08.490Z,11.86
2017-10-30T10:27:08.483Z,11.86
2017-10-30T10:28:08.480Z,11.81
2017-10-30T10:29:08.469Z,11.99
2017-10-30T10:30:08.465Z,12.04
2017-10-30T10:31:08.460Z,12.03
2017-10-30T10:32:08.452Z,12.04
2017-10-30T10:33:09.189Z,12.17
2017-10-30T10:34:08.445Z,12.15
2017-10-30T10:35:08.437Z,12.22
2017-10-30T10:36:08.428Z,12.25
2017-10-30T10:37:08.422Z,12.28
2017-10-30T10:38:08.420Z,12.25
2017-10-30T10:39:08.412Z,12.35
2017-10-30T10:40:08.406Z,12.36
2017-10-30T10:41:08.407Z,12.22
2017-10-30T10:42:08.394Z,12.36
2017-10-30T10:43:08.395Z,12.31
2017-10-30T10:44:08.384Z,12.28
2017-10-30T10:45:08.378Z,12.29
2017-10-30T10:46:08.373Z,12.21
2017-10-30T10:47:08.366Z,12.24
2017-10-30T10:48:08.360Z,12.21
2017-10-30T10:49:08.359Z,12.29
2017-10-30T10:50:08.351Z,12.35
2017-10-30T10:51:08.349Z,12.47
2017-10-30T10:52:08.340Z,12.64
2017-10-30T10:53:08.337Z,12.82
2017-10-30T10:54:08.334Z,12.94
2017-10-30T10:55:08.330Z,13.09
2017-10-30T10:56:08.323Z,13.01
2017-10-30T10:57:08.321Z,13.16
2017-10-30T10:58:08.322Z,13.28
2017-10-30T10:59:08.316Z,13.27
2017-10-30T11:00:08.312Z,13.53
2017-10-30T11:01:08.313Z,13.60
2017-10-30T11:02:08.309Z,13.59
2017-10-30T11:03:08.307Z,13.72
2017-10-30T11:04:08.302Z,13.78
2017-10-30T11:05:08.301Z,13.97
2017-10-30T11:06:08.299Z,14.04
2017-10-30T11:07:08.297Z,14.14
2017-10-30T11:08:08.299Z,14.14
2017-10-30T11:09:08.293Z,14.26
2017-10-30T11:10:08.295Z,14.35
2017-10-30T11:11:08.293Z,14.35
2017-10-30T11:12:08.313Z,14.43
2017-10-30T11:13:08.291Z,14.50
2017-10-30T11:14:08.299Z,14.59
2017-10-30T11:15:08.300Z,14.69
2017-10-30T11:16:08.291Z,14.63
2017-10-30T11:17:08.289Z,14.60
2017-10-30T11:18:08.290Z,14.66
2017-10-30T11:19:08.289Z,14.79
2017-10-30T11:20:08.291Z,14.84
2017-10-30T11:21:08.298Z,14.92
2017-10-30T11:22:08.295Z,15.02
2017-10-30T11:23:08.298Z,15.03
2017-10-30T11:24:09.218Z,15.03
2017-10-30T11:25:08.295Z,15.03
2017-10-30T11:26:08.297Z,15.10
2017-10-30T11:27:08.306Z,15.14
2017-10-30T11:28:08.298Z,15.06
2017-10-30T11:29:08.297Z,14.97
2017-10-30T11:30:08.303Z,14.81
2017-10-30T11:31:08.301Z,14.69
2017-10-30T11:32:08.299Z,14.73
2017-10-30T11:33:08.298Z,14.72
2017-10-30T11:34:08.300Z,14.65
2017-10-30T11:35:08.298Z,14.58
2017-10-30T11:36:08.298Z,14.55
2017-10-30T11:37:08.298Z,14.44
2017-10-30T11:38:08.298Z,14.44
2017-10-30T11:39:08.298Z,14.40
2017-10-30T11:40:08.296Z,14.41
2017-10-30T11:41:08.295Z,14.40
2017-10-30T11:42:08.301Z,14.58
2017-10-30T11:43:08.295Z,14.48
2017-10-30T11:44:08.292Z,14.48
2017-10-30T11:45:08.298Z,14.54
2017-10-30T11:46:08.301Z,14.54
2017-10-30T11:47:08.292Z,14.51
2017-10-30T11:48:08.289Z,14.50
2017-10-30T11:49:08.289Z,14.51
2017-10-30T11:50:08.288Z,14.40
2017-10-30T11:51:08.294Z,14.44
2017-10-30T11:52:08.285Z,14.45
2017-10-30T11:53:08.283Z,14.47
2017-10-30T11:54:08.288Z,14.62
2017-10-30T11:55:08.282Z,14.77
2017-10-30T11:56:08.280Z,14.85
2017-10-30T11:57:08.279Z,14.94
2017-10-30T11:58:08.277Z,14.85
2017-10-30T11:59:08.283Z,14.66
2017-10-30T12:00:08.274Z,14.63
2017-10-30T12:01:08.276Z,14.53
2017-10-30T12:02:08.270Z,14.44
2017-10-30T12:03:08.268Z,14.29
2017-10-30T12:04:08.264Z,14.17
2017-10-30T12:05:08.264Z,14.07
2017-10-30T12:06:08.267Z,13.97
2017-10-30T12:07:08.261Z,13.97
2017-10-30T12:08:08.257Z,13.85
2017-10-30T12:09:08.266Z,13.79
2017-10-30T12:10:08.249Z,13.78
2017-10-30T12:11:08.246Z,13.59
2017-10-30T12:12:08.243Z,13.60
2017-10-30T12:13:08.241Z,13.49
2017-10-30T12:14:08.239Z,13.49
2017-10-30T12:15:08.234Z,13.42
2017-10-30T12:16:08.228Z,13.35
2017-10-30T12:17:08.226Z,13.35
2017-10-30T12:18:08.220Z,13.38
2017-10-30T12:19:08.216Z,13.20
2017-10-30T12:20:08.218Z,13.27
2017-10-30T12:21:08.207Z,13.31
2017-10-30T12:22:08.204Z,13.30
2017-10-30T12:23:08.198Z,13.25
2017-10-30T12:24:08.193Z,13.28
2017-10-30T12:25:08.190Z,13.20
2017-10-30T12:26:08.189Z,13.35
2017-10-30T12:27:08.181Z,13.31
2017-10-30T12:28:08.175Z,13.38
2017-10-30T12:29:08.173Z,13.33
2017-10-30T12:30:08.167Z,13.37
2017-10-30T12:31:08.163Z,13.41
2017-10-30T12:32:08.180Z,13.39
2017-10-30T12:33:08.158Z,13.41
2017-10-30T12:34:08.152Z,13.60
2017-10-30T12:35:08.146Z,13.63
2017-10-30T12:36:08.141Z,13.57
2017-10-30T12:37:08.138Z,13.67
2017-10-30T12:38:08.134Z,13.78
2017-10-30T12:39:08.133Z,13.81
2017-10-30T12:40:08.130Z,13.87
2017-10-30T12:41:08.124Z,13.99
2017-10-30T12:42:08.133Z,13.95
2017-10-30T12:43:08.123Z,14.07
2017-10-30T12:44:08.118Z,14.11
2017-10-30T12:45:08.112Z,14.22
2017-10-30T12:46:08.112Z,14.20
2017-10-30T12:47:08.109Z,14.20
2017-10-30T12:48:08.106Z,14.23
2017-10-30T12:49:08.102Z,14.22
2017-10-30T12:50:08.098Z,14.30
2017-10-30T12:51:08.097Z,14.32
2017-10-30T12:52:08.092Z,14.33
2017-10-30T12:53:08.091Z,14.32
2017-10-30T12:54:08.087Z,14.32
2017-10-30T12:55:08.093Z,14.28
2017-10-30T12:56:08.081Z,14.25
2017-10-30T12:57:08.080Z,14.25
2017-10-30T12:58:08.075Z,14.14
2017-10-30T12:59:08.076Z,14.17
2017-10-30T13:00:08.074Z,14.25
2017-10-30T13:01:08.069Z,14.22
2017-10-30T13:02:08.065Z,14.28
2017-10-30T13:03:08.062Z,14.37
2017-10-30T13:04:08.058Z,14.36
2017-10-30T13:05:08.056Z,14.44
2017-10-30T13:06:08.054Z,14.29
2017-10-30T13:07:08.056Z,14.26
2017-10-30T13:08:08.062Z,14.29
2017-10-30T13:09:08.045Z,14.17
2017-10-30T13:10:08.044Z,14.23